createdAt,value
2022-11-27T00:01:08.869Z,4.26
2022-11-27T00:03:35.749Z,4.23
2022-11-27T00:06:02.502Z,4.19
2022-11-27T00:08:29.296Z,4.15
2022-11-27T00:10:56.035Z,4.09
2022-11-27T00:13:22.795Z,4.04
2022-11-27T00:15:49.576Z,3.99
2022-11-27T00:18:16.790Z,3.96
2022-11-27T00:20:43.514Z,3.95
2022-11-27T00:23:10.147Z,3.94
2022-11-27T00:25:36.842Z,3.87
2022-11-27T00:28:03.630Z,3.79
2022-11-27T00:30:30.167Z,3.72
2022-11-27T00:32:56.703Z,3.66
2022-11-27T00:35:23.373Z,3.62
2022-11-27T00:37:50.503Z,3.58
2022-11-27T00:40:17.340Z,3.55
2022-11-27T00:42:44.074Z,3.57
2022-11-27T00:45:10.927Z,3.62
2022-11-27T00:47:37.656Z,3.66
2022-11-27T00:50:04.602Z,3.70
2022-11-27T00:52:31.318Z,3.76
2022-11-27T00:54:57.886Z,3.82
2022-11-27T00:57:26.054Z,3.85
2022-11-27T00:59:52.739Z,3.87
2022-11-27T01:02:19.230Z,3.84
2022-11-27T01:04:47.135Z,3.81
2022-11-27T01:07:14.140Z,3.75
2022-11-27T01:09:40.873Z,3.67
2022-11-27T01:12:08.442Z,3.65
2022-11-27T01:14:35.490Z,3.66
2022-11-27T01:17:02.284Z,3.67
2022-11-27T01:19:28.751Z,3.63
2022-11-27T01:21:55.437Z,3.54
2022-11-27T01:24:21.981Z,3.47
2022-11-27T01:26:48.888Z,3.45
2022-11-27T01:29:15.534Z,3.45
2022-11-27T01:31:42.306Z,3.41
2022-11-27T01:34:21.750Z,3.37
2022-11-27T01:36:48.551Z,3.30
2022-11-27T01:39:17.747Z,3.21
2022-11-27T01:41:45.785Z,3.15
2022-11-27T01:44:24.961Z,3.09
2022-11-27T01:47:02.236Z,3.03
2022-11-27T01:49:36.133Z,2.98
2022-11-27T01:52:06.560Z,2.96
2022-11-27T01:54:40.034Z,2.95
2022-11-27T01:57:14.309Z,2.96
2022-11-27T01:59:41.479Z,3.00
2022-11-27T02:02:08.253Z,3.04
2022-11-27T02:04:35.000Z,3.09
2022-11-27T02:07:01.842Z,3.13
2022-11-27T02:09:29.737Z,3.19
2022-11-27T02:12:01.252Z,3.24
2022-11-27T02:14:35.303Z,3.29
2022-11-27T02:17:01.912Z,3.33
2022-11-27T02:19:38.516Z,3.33
2022-11-27T02:22:28.493Z,3.28
2022-11-27T02:25:13.712Z,3.26
2022-11-27T02:28:13.905Z,3.20
2022-11-27T02:30:51.095Z,3.20
2022-11-27T02:33:20.890Z,3.22
2022-11-27T02:36:03.377Z,3.21
2022-11-27T02:38:34.951Z,3.14
2022-11-27T02:41:25.668Z,3.03
2022-11-27T02:43:53.284Z,2.92
2022-11-27T02:46:20.595Z,2.84
2022-11-27T02:48:52.596Z,2.74
2022-11-27T02:51:35.397Z,2.67
2022-11-27T02:54:04.597Z,2.62
2022-11-27T02:56:32.007Z,2.58
2022-11-27T02:59:05.238Z,2.60
2022-11-27T03:01:39.331Z,2.64
2022-11-27T03:04:10.573Z,2.71
2022-11-27T03:06:41.808Z,2.79
2022-11-27T03:09:19.395Z,2.87
2022-11-27T03:11:46.388Z,2.90
2022-11-27T03:14:24.552Z,2.94
2022-11-27T03:17:20.450Z,2.96
2022-11-27T03:19:52.817Z,2.95
2022-11-27T03:22:20.418Z,2.92
2022-11-27T03:24:50.029Z,2.88
2022-11-27T03:27:24.418Z,2.86
2022-11-27T03:29:54.874Z,2.87
2022-11-27T03:32:22.019Z,2.84
2022-11-27T03:34:48.907Z,2.80
2022-11-27T03:37:15.912Z,2.74
2022-11-27T03:39:42.853Z,2.69
2022-11-27T03:42:45.510Z,2.63
2022-11-27T03:45:34.400Z,2.59
2022-11-27T03:48:13.344Z,2.55
2022-11-27T03:51:34.028Z,2.51
2022-11-27T03:54:16.740Z,2.49
2022-11-27T03:56:48.194Z,2.41
2022-11-27T03:59:36.860Z,2.32
2022-11-27T04:02:03.652Z,2.29
2022-11-27T04:04:30.537Z,2.29
2022-11-27T04:06:57.276Z,2.31
2022-11-27T04:09:25.487Z,2.34
2022-11-27T04:11:52.048Z,2.42
2022-11-27T04:14:18.780Z,2.48
2022-11-27T04:16:45.458Z,2.52
2022-11-27T04:19:12.077Z,2.55
2022-11-27T04:21:38.723Z,2.57
2022-11-27T04:24:05.508Z,2.57
2022-11-27T04:26:31.976Z,2.55
2022-11-27T04:28:58.765Z,2.50
2022-11-27T04:31:25.318Z,2.42
2022-11-27T04:33:52.040Z,2.36
2022-11-27T04:36:18.637Z,2.31
2022-11-27T04:38:45.313Z,2.27
2022-11-27T04:41:12.055Z,2.22
2022-11-27T04:43:38.650Z,2.18
2022-11-27T04:46:05.638Z,2.14
2022-11-27T04:48:32.379Z,2.13
2022-11-27T04:50:59.035Z,2.15
2022-11-27T04:53:25.861Z,2.15
2022-11-27T04:55:52.672Z,2.13
2022-11-27T04:58:19.446Z,2.05
2022-11-27T05:00:46.124Z,2.01
2022-11-27T05:03:13.095Z,1.95
2022-11-27T05:05:39.773Z,1.95
2022-11-27T05:08:06.518Z,2.04
2022-11-27T05:10:33.132Z,2.18
2022-11-27T05:12:59.990Z,2.32
2022-11-27T05:15:26.527Z,2.40
2022-11-27T05:17:53.171Z,2.43
2022-11-27T05:20:19.904Z,2.49
2022-11-27T05:22:48.386Z,2.53
2022-11-27T05:25:15.234Z,2.59
2022-11-27T05:27:42.074Z,2.67
2022-11-27T05:30:09.079Z,2.73
2022-11-27T05:32:35.758Z,2.75
2022-11-27T05:35:02.500Z,2.76
2022-11-27T05:37:29.150Z,2.71
2022-11-27T05:39:55.880Z,2.64
2022-11-27T05:42:22.519Z,2.55
2022-11-27T05:44:51.727Z,2.49
2022-11-27T05:47:22.075Z,2.48
2022-11-27T05:49:48.905Z,2.49
2022-11-27T05:52:15.484Z,2.51
2022-11-27T05:54:42.405Z,2.51
2022-11-27T05:57:09.328Z,2.46
2022-11-27T05:59:36.004Z,2.36
2022-11-27T06:02:02.847Z,2.27
2022-11-27T06:04:29.736Z,2.19
2022-11-27T06:06:56.479Z,2.10
2022-11-27T06:09:23.077Z,2.04
2022-11-27T06:11:49.958Z,2.00
2022-11-27T06:14:16.800Z,2.01
2022-11-27T06:16:43.396Z,2.04
2022-11-27T06:19:10.078Z,2.07
2022-11-27T06:21:37.331Z,2.12
2022-11-27T06:24:04.380Z,2.19
2022-11-27T06:26:32.672Z,2.29
2022-11-27T06:29:00.942Z,2.33
2022-11-27T06:31:30.496Z,2.34
2022-11-27T06:33:57.964Z,2.34
2022-11-27T06:36:29.951Z,2.37
2022-11-27T06:38:56.624Z,2.40
2022-11-27T06:41:25.092Z,2.38
2022-11-27T06:43:51.823Z,2.37
2022-11-27T06:46:20.810Z,2.38
2022-11-27T06:48:49.584Z,2.38
2022-11-27T06:51:19.626Z,2.38
2022-11-27T06:53:46.355Z,2.38
2022-11-27T06:56:15.665Z,2.39
2022-11-27T06:58:43.365Z,2.36
2022-11-27T07:01:15.147Z,2.36
2022-11-27T07:03:42.287Z,2.35
2022-11-27T07:06:11.134Z,2.36
2022-11-27T07:08:39.476Z,2.37
2022-11-27T07:11:09.124Z,2.37
2022-11-27T07:13:35.946Z,2.38
2022-11-27T07:16:05.625Z,2.39
2022-11-27T07:18:36.606Z,2.46
2022-11-27T07:21:03.564Z,2.61
2022-11-27T07:23:31.634Z,2.72
2022-11-27T07:25:59.387Z,2.84
2022-11-27T07:28:26.418Z,2.98
2022-11-27T07:30:57.635Z,3.12
2022-11-27T07:33:25.141Z,3.27
2022-11-27T07:36:02.680Z,3.43
2022-11-27T07:38:30.910Z,3.59
2022-11-27T07:41:03.519Z,3.70
2022-11-27T07:43:31.561Z,3.82
2022-11-27T07:45:58.749Z,3.93
2022-11-27T07:48:25.639Z,4.04
2022-11-27T07:50:52.206Z,4.17
2022-11-27T07:53:19.148Z,4.29
2022-11-27T07:55:45.856Z,4.40
2022-11-27T07:58:12.413Z,4.49
2022-11-27T08:00:39.171Z,4.57
2022-11-27T08:03:06.119Z,4.66
2022-11-27T08:05:36.826Z,4.78
2022-11-27T08:08:04.684Z,4.94
2022-11-27T08:10:35.233Z,5.12
2022-11-27T08:13:09.575Z,5.32
2022-11-27T08:15:37.325Z,5.54
2022-11-27T08:18:04.256Z,5.75
2022-11-27T08:20:30.996Z,5.97
2022-11-27T08:23:02.807Z,6.19
2022-11-27T08:25:30.440Z,6.43
2022-11-27T08:27:57.304Z,6.66
2022-11-27T08:30:24.309Z,6.89
2022-11-27T08:32:51.084Z,7.11
2022-11-27T08:35:21.073Z,7.32
2022-11-27T08:37:48.353Z,7.55
2022-11-27T08:40:15.269Z,7.73
2022-11-27T08:42:41.937Z,7.92
2022-11-27T08:45:09.429Z,8.09
2022-11-27T08:47:36.140Z,8.24
2022-11-27T08:50:05.662Z,8.42
2022-11-27T08:52:32.589Z,8.66
2022-11-27T08:54:59.299Z,8.87
2022-11-27T08:57:26.046Z,9.10
2022-11-27T08:59:52.756Z,9.33
2022-11-27T09:02:19.834Z,9.55
2022-11-27T09:04:46.498Z,9.78
2022-11-27T09:07:15.518Z,9.97
2022-11-27T09:09:42.309Z,10.12
2022-11-27T09:12:09.146Z,10.24
2022-11-27T09:14:35.885Z,10.41
2022-11-27T09:17:02.685Z,10.61
2022-11-27T09:19:29.572Z,10.83
2022-11-27T09:21:56.239Z,10.99
2022-11-27T09:24:22.992Z,11.16
2022-11-27T09:26:49.659Z,11.38
2022-11-27T09:29:16.328Z,11.61
2022-11-27T09:31:43.024Z,11.82
2022-11-27T09:34:09.818Z,12.03
2022-11-27T09:36:36.531Z,12.24
2022-11-27T09:39:03.895Z,12.44
2022-11-27T09:41:33.818Z,12.68
2022-11-27T09:44:06.577Z,12.89
2022-11-27T09:46:37.654Z,13.10
2022-11-27T09:49:09.040Z,13.31
2022-11-27T09:51:53.902Z,13.48
2022-11-27T09:54:27.240Z,13.54
2022-11-27T09:56:55.648Z,13.63
2022-11-27T09:59:25.674Z,13.65
2022-11-27T10:01:52.547Z,13.65
2022-11-27T10:04:21.086Z,13.72
2022-11-27T10:07:06.158Z,13.76
2022-11-27T10:09:45.012Z,13.88
2022-11-27T10:12:17.836Z,13.86
2022-11-27T10:14:47.332Z,13.86
2022-11-27T10:17:21.047Z,14.01
2022-11-27T10:20:13.082Z,14.18
2022-11-27T10:22:50.128Z,14.39
2022-11-27T10:25:20.751Z,14.62
2022-11-27T10:28:09.398Z,14.80
2022-11-27T10:30:44.798Z,14.84
2022-11-27T10:33:19.186Z,14.90
2022-11-27T10:35:48.063Z,15.05
2022-11-27T10:38:20.943Z,15.19
2022-11-27T10:41:34.339Z,15.21
2022-11-27T10:44:21.879Z,15.31
2022-11-27T10:46:49.132Z,15.54
2022-11-27T10:49:15.820Z,15.86
2022-11-27T10:51:42.492Z,15.95
2022-11-27T10:54:12.941Z,15.98
2022-11-27T10:56:52.091Z,16.10
2022-11-27T10:59:22.381Z,16.08
2022-11-27T11:01:50.695Z,16.25
2022-11-27T11:04:37.417Z,16.47
2022-11-27T11:07:04.592Z,16.60
2022-11-27T11:09:33.063Z,16.92
2022-11-27T11:12:17.589Z,17.08
2022-11-27T11:15:01.803Z,17.21
2022-11-27T11:17:37.781Z,17.09
2022-11-27T11:20:33.981Z,17.31
2022-11-27T11:23:00.572Z,17.44
2022-11-27T11:25:27.300Z,17.66
2022-11-27T11:27:54.038Z,18.16
2022-11-27T11:30:23.670Z,18.54
2022-11-27T11:32:51.136Z,18.82
2022-11-27T11:35:27.984Z,19.26
2022-11-27T11:37:55.223Z,19.31
2022-11-27T11:40:25.182Z,19.07
2022-11-27T11:42:58.959Z,19.10
2022-11-27T11:45:30.028Z,19.73
2022-11-27T11:48:15.755Z,20.40
2022-11-27T11:50:49.988Z,20.78
2022-11-27T11:53:32.365Z,21.20
2022-11-27T11:56:14.046Z,21.40
2022-11-27T11:59:03.104Z,21.72
2022-11-27T12:01:48.031Z,21.35
2022-11-27T12:04:49.380Z,21.26
2022-11-27T12:07:41.007Z,22.15
2022-11-27T12:10:16.814Z,22.59
2022-11-27T12:12:46.312Z,22.57
2022-11-27T12:15:34.446Z,23.16
2022-11-27T12:18:02.958Z,23.28
2022-11-27T12:20:57.766Z,23.18
2022-11-27T12:23:32.015Z,23.05
2022-11-27T12:26:17.729Z,23.42
2022-11-27T12:29:21.057Z,23.10
2022-11-27T12:31:52.248Z,22.52
2022-11-27T12:34:31.259Z,22.47
2022-11-27T12:37:42.580Z,22.43
2022-11-27T12:41:09.128Z,22.39
2022-11-27T12:43:39.927Z,22.75
2022-11-27T12:46:15.005Z,22.79
2022-11-27T12:48:48.116Z,22.59
2022-11-27T12:51:22.622Z,22.35
2022-11-27T12:53:54.120Z,22.14
2022-11-27T12:56:48.556Z,22.01
2022-11-27T12:59:27.267Z,22.41
2022-11-27T13:02:07.578Z,22.80
2022-11-27T13:05:23.490Z,22.90
2022-11-27T13:07:54.676Z,22.97
2022-11-27T13:10:24.482Z,23.16
2022-11-27T13:13:01.117Z,23.39
2022-11-27T13:15:32.101Z,23.82
2022-11-27T13:18:31.595Z,23.69
2022-11-27T13:21:01.331Z,22.96
2022-11-27T13:23:34.904Z,22.92
2022-11-27T13:26:05.252Z,22.65
2022-11-27T13:28:42.057Z,22.31
2022-11-27T13:31:15.200Z,22.16
2022-11-27T13:33:44.425Z,22.17
2022-11-27T13:36:40.978Z,22.25
2022-11-27T13:39:24.168Z,22.26
2022-11-27T13:42:19.379Z,22.13
2022-11-27T13:44:54.235Z,22.26
2022-11-27T13:47:23.162Z,22.11
2022-11-27T13:50:02.424Z,21.92
2022-11-27T13:52:30.315Z,21.82
2022-11-27T13:55:01.998Z,21.61
2022-11-27T13:57:30.299Z,20.97
2022-11-27T14:00:12.324Z,19.94
2022-11-27T14:02:48.417Z,19.27
2022-11-27T14:05:19.019Z,18.89
2022-11-27T14:07:51.055Z,18.65
2022-11-27T14:10:21.478Z,18.20
2022-11-27T14:13:07.881Z,17.94
2022-11-27T14:15:36.799Z,17.62
2022-11-27T14:18:21.286Z,17.34
2022-11-27T14:20:50.924Z,17.14
2022-11-27T14:23:31.782Z,16.98
2022-11-27T14:26:02.511Z,16.82
2022-11-27T14:28:31.158Z,16.68
2022-11-27T14:31:04.203Z,16.49
2022-11-27T14:33:59.664Z,16.24
2022-11-27T14:36:31.968Z,15.90
2022-11-27T14:38:59.214Z,15.70
2022-11-27T14:41:27.024Z,15.47
2022-11-27T14:44:05.181Z,15.22
2022-11-27T14:46:34.121Z,15.06
2022-11-27T14:49:01.246Z,14.96
2022-11-27T14:51:36.243Z,14.83
2022-11-27T14:54:05.592Z,14.64
2022-11-27T14:56:43.048Z,14.46
2022-11-27T14:59:22.323Z,14.32
2022-11-27T15:02:29.347Z,14.11
2022-11-27T15:05:05.655Z,13.84
2022-11-27T15:07:41.937Z,13.67
2022-11-27T15:10:29.811Z,13.45
2022-11-27T15:12:56.969Z,13.18
2022-11-27T15:15:29.401Z,13.00
2022-11-27T15:17:57.233Z,12.79
2022-11-27T15:20:33.695Z,12.53
2022-11-27T15:23:00.804Z,12.29
2022-11-27T15:25:29.487Z,12.04
2022-11-27T15:27:56.210Z,11.82
2022-11-27T15:30:23.518Z,11.61
2022-11-27T15:32:51.892Z,11.40
2022-11-27T15:35:27.590Z,11.18
2022-11-27T15:37:57.956Z,10.95
2022-11-27T15:40:30.516Z,10.75
2022-11-27T15:42:57.166Z,10.56
2022-11-27T15:45:27.601Z,10.38
2022-11-27T15:47:59.528Z,10.16
2022-11-27T15:50:26.726Z,9.87
2022-11-27T15:52:53.454Z,9.62
2022-11-27T15:55:20.156Z,9.44
2022-11-27T15:57:46.875Z,9.22
2022-11-27T16:00:14.206Z,9.04
2022-11-27T16:02:41.022Z,8.85
2022-11-27T16:05:08.422Z,8.62
2022-11-27T16:07:35.342Z,8.42
2022-11-27T16:10:02.085Z,8.20
2022-11-27T16:12:28.719Z,8.04
2022-11-27T16:14:55.298Z,7.89
2022-11-27T16:17:21.897Z,7.73
2022-11-27T16:19:48.577Z,7.58
2022-11-27T16:22:15.205Z,7.46
2022-11-27T16:24:42.132Z,7.35
2022-11-27T16:27:09.073Z,7.23
2022-11-27T16:29:36.033Z,7.08
2022-11-27T16:32:02.974Z,6.94
2022-11-27T16:34:29.953Z,6.79
2022-11-27T16:36:56.628Z,6.67
2022-11-27T16:39:24.176Z,6.57
2022-11-27T16:41:52.722Z,6.48
2022-11-27T16:44:21.224Z,6.39
2022-11-27T16:46:50.143Z,6.30
2022-11-27T16:49:17.891Z,6.23
2022-11-27T16:51:44.627Z,6.16
2022-11-27T16:54:13.340Z,6.09
2022-11-27T16:56:42.051Z,6.02
2022-11-27T16:59:10.699Z,5.96
2022-11-27T17:01:41.092Z,5.90
2022-11-27T17:04:11.193Z,5.85
2022-11-27T17:06:39.239Z,5.83
2022-11-27T17:09:07.679Z,5.83
2022-11-27T17:11:36.007Z,5.83
2022-11-27T17:14:06.326Z,5.83
2022-11-27T17:16:33.999Z,5.82
2022-11-27T17:19:00.945Z,5.80
2022-11-27T17:21:30.621Z,5.76
2022-11-27T17:24:01.012Z,5.67
2022-11-27T17:26:32.330Z,5.51
2022-11-27T17:29:00.121Z,5.40
2022-11-27T17:31:32.715Z,5.28
2022-11-27T17:34:00.292Z,5.15
2022-11-27T17:36:33.757Z,5.03
2022-11-27T17:39:05.454Z,4.89
2022-11-27T17:41:32.316Z,4.78
2022-11-27T17:43:59.146Z,4.70
2022-11-27T17:46:27.887Z,4.64
2022-11-27T17:48:55.613Z,4.58
2022-11-27T17:51:22.581Z,4.53
2022-11-27T17:53:49.330Z,4.50
2022-11-27T17:56:18.449Z,4.49
2022-11-27T17:58:47.189Z,4.47
2022-11-27T18:01:19.799Z,4.45
2022-11-27T18:03:48.450Z,4.42
2022-11-27T18:06:16.884Z,4.41
2022-11-27T18:08:44.152Z,4.34
2022-11-27T18:11:14.023Z,4.29
2022-11-27T18:13:40.996Z,4.23
2022-11-27T18:16:12.421Z,4.23
2022-11-27T18:18:40.072Z,4.28
2022-11-27T18:21:08.667Z,4.30
2022-11-27T18:23:36.340Z,4.34
2022-11-27T18:26:07.727Z,4.41
2022-11-27T18:28:34.824Z,4.42
2022-11-27T18:31:09.595Z,4.44
2022-11-27T18:33:37.188Z,4.49
2022-11-27T18:36:05.462Z,4.50
2022-11-27T18:38:33.546Z,4.46
2022-11-27T18:41:20.676Z,4.40
2022-11-27T18:43:47.935Z,4.35
2022-11-27T18:46:16.301Z,4.33
2022-11-27T18:48:48.822Z,4.32
2022-11-27T18:51:24.161Z,4.35
2022-11-27T18:53:51.929Z,4.44
2022-11-27T18:56:21.446Z,4.44
2022-11-27T18:58:48.697Z,4.41
2022-11-27T19:01:23.366Z,4.42
2022-11-27T19:03:50.640Z,4.43
2022-11-27T19:06:18.967Z,4.41
2022-11-27T19:08:46.134Z,4.35
2022-11-27T19:11:21.822Z,4.30
2022-11-27T19:14:20.892Z,4.25
2022-11-27T19:16:50.877Z,4.26
2022-11-27T19:22:09.820Z,4.35
2022-11-27T19:24:37.414Z,4.43
2022-11-27T19:27:04.100Z,4.49
2022-11-27T19:29:30.702Z,4.50
2022-11-27T19:31:59.005Z,4.47
2022-11-27T19:34:26.168Z,4.37
2022-11-27T19:36:53.197Z,4.29
2022-11-27T19:39:20.116Z,4.22
2022-11-27T19:41:48.479Z,4.16
2022-11-27T19:44:17.166Z,4.08
2022-11-27T19:46:45.104Z,4.03
2022-11-27T19:49:15.317Z,3.99
2022-11-27T19:51:42.159Z,3.92
2022-11-27T19:54:11.461Z,3.83
2022-11-27T19:56:40.321Z,3.77
2022-11-27T19:59:07.789Z,3.71
2022-11-27T20:01:34.701Z,3.68
2022-11-27T20:04:03.358Z,3.66
2022-11-27T20:06:30.077Z,3.60
2022-11-27T20:09:00.896Z,3.55
2022-11-27T20:11:34.089Z,3.51
2022-11-27T20:14:01.705Z,3.49
2022-11-27T20:16:28.592Z,3.45
2022-11-27T20:18:55.810Z,3.43
2022-11-27T20:21:24.814Z,3.45
2022-11-27T20:23:52.531Z,3.49
2022-11-27T20:26:22.258Z,3.56
2022-11-27T20:28:50.300Z,3.63
2022-11-27T20:31:24.342Z,3.67
2022-11-27T20:33:52.486Z,3.67
2022-11-27T20:36:20.719Z,3.67
2022-11-27T20:38:48.375Z,3.72
2022-11-27T20:41:17.481Z,3.78
2022-11-27T20:43:44.925Z,3.79
2022-11-27T20:46:13.478Z,3.79
2022-11-27T20:48:40.389Z,3.76
2022-11-27T20:51:11.278Z,3.71
2022-11-27T20:53:38.062Z,3.67
2022-11-27T20:56:06.415Z,3.66
2022-11-27T20:58:38.057Z,3.67
2022-11-27T21:01:19.905Z,3.66
2022-11-27T21:03:48.561Z,3.56
2022-11-27T21:06:17.313Z,3.47
2022-11-27T21:08:44.045Z,3.38
2022-11-27T21:11:13.731Z,3.28
2022-11-27T21:13:41.241Z,3.19
2022-11-27T21:16:14.091Z,3.14
2022-11-27T21:18:40.991Z,3.09
2022-11-27T21:21:11.987Z,3.08
2022-11-27T21:23:42.448Z,3.09
2022-11-27T21:26:11.146Z,3.13
2022-11-27T21:28:38.917Z,3.19
2022-11-27T21:31:09.724Z,3.27
2022-11-27T21:33:37.464Z,3.33
2022-11-27T21:36:05.428Z,3.37
2022-11-27T21:38:32.336Z,3.43
2022-11-27T21:40:59.103Z,3.44
2022-11-27T21:43:26.003Z,3.41
2022-11-27T21:45:52.909Z,3.37
2022-11-27T21:48:20.592Z,3.36
2022-11-27T21:50:47.340Z,3.36
2022-11-27T21:53:14.025Z,3.38
2022-11-27T21:55:44.208Z,3.37
2022-11-27T21:58:11.736Z,3.36
2022-11-27T22:00:38.722Z,3.35
2022-11-27T22:03:05.341Z,3.33
2022-11-27T22:05:32.037Z,3.30
2022-11-27T22:07:58.902Z,3.24
2022-11-27T22:10:25.630Z,3.23
2022-11-27T22:12:52.520Z,3.27
2022-11-27T22:15:19.383Z,3.31
2022-11-27T22:17:46.145Z,3.33
2022-11-27T22:20:13.817Z,3.37
2022-11-27T22:22:40.535Z,3.42
2022-11-27T22:25:08.142Z,3.46
2022-11-27T22:27:34.949Z,3.52
2022-11-27T22:30:01.555Z,3.54
2022-11-27T22:32:28.506Z,3.54
2022-11-27T22:34:55.087Z,3.52
2022-11-27T22:37:21.754Z,3.45
2022-11-27T22:39:48.780Z,3.38
2022-11-27T22:42:15.306Z,3.34
2022-11-27T22:44:42.304Z,3.31
2022-11-27T22:47:09.597Z,3.26
2022-11-27T22:49:36.259Z,3.23
2022-11-27T22:52:03.212Z,3.24
2022-11-27T22:54:29.928Z,3.24
2022-11-27T22:56:57.579Z,3.18
2022-11-27T22:59:34.192Z,3.09
2022-11-27T23:02:03.280Z,2.98
2022-11-27T23:04:30.051Z,2.90
2022-11-27T23:06:57.428Z,2.86
2022-11-27T23:09:24.130Z,2.86
2022-11-27T23:11:50.923Z,2.88
2022-11-27T23:14:21.406Z,2.89
2022-11-27T23:16:48.194Z,2.90
2022-11-27T23:19:14.922Z,2.93
2022-11-27T23:21:42.062Z,3.01
2022-11-27T23:24:12.947Z,2.99
2022-11-27T23:26:39.668Z,2.92
2022-11-27T23:29:06.332Z,2.88
2022-11-27T23:31:35.394Z,2.86
2022-11-27T23:34:05.857Z,2.82
2022-11-27T23:36:32.787Z,2.77
2022-11-27T23:39:01.064Z,2.66
2022-11-27T23:41:28.223Z,2.60
2022-11-27T23:43:55.552Z,2.53
2022-11-27T23:46:26.344Z,2.46
2022-11-27T23:48:57.385Z,2.39
2022-11-27T23:51:26.457Z,2.36
2022-11-27T23:53:53.829Z,2.35
2022-11-27T23:56:23.155Z,2.33
2022-11-27T23:58:50.283Z,2.30
